首页
METAR-TAF:

METAR-TAF

机场 :

杰克逊维尔国际机场

杰克逊维尔, 佛罗里达州, 美国

纬度: 30-29-40N, 经度: 081-41-36W, 海拔: 9米

当前天气观测

该预报发布于56分钟前的01:56 UTC
风速7节,风向南转西南
温度 21°C
湿度 73%
气压 1012 hPa
能見度: 16.1公里
多云层高于5500英尺
阴天层高于25000英尺

METAR: KJAX 170156Z 21007KT 10SM BKN055 OVC250 21/16 A2987 RMK AO2 SLP114 T02060156

时间: 21:52 (02:52 UTC)

预报

该预报发布于3小时和24分钟前的23:28 UTC
预报有效从17日的 00点(UTC)到 17日的 24点(UTC)
风速5节,风向西南
能見度: 10公里
少量云层高于4000英尺
散云层高于6000英尺
多云层高于25000英尺
从 17日的 0700点(UTC)
风速节,风向
能見度: 9.7公里
散云层高于400英尺
散云层高于20000英尺
轻雾
短暂存在
从 17日的 08点(UTC)到 17日的 10点(UTC)
能見度: 3.2公里
多云层高于400英尺
轻雾
从 17日的 1000点(UTC)
风速3节,风向
能見度: 0.8公里
阴天层高于400英尺
从 17日的 1400点(UTC)
风速6节,风向
能見度: 10公里
散云层高于500英尺
多云层高于1500英尺
从 17日的 1500点(UTC)
风速8节,风向南转西南
能見度: 10公里
散云层高于1500英尺
多云层高于2500英尺
从 17日的 1800点(UTC)
风速10节,风向
能見度: 10公里
散云层高于2000英尺
多云层高于3500英尺

TAF: KJAX 162328Z 1700/1724 22005KT P6SM FEW040 SCT060 BKN250 FM170700 00000KT 6SM BR SCT004 SCT200 TEMPO 1708/1710 2SM BR BKN004 FM171000 18003KT 1/2SM FG OVC004 FM171400 19006KT P6SM SCT005 BKN015 FM171500 20008KT P6SM SCT015 BKN025 FM171800 19010KT P6SM SCT020 BKN035

超过4000个机场的气象观测和天气预报(METAR&TAF报告)。

可查询的气象台以黄色和红色小点在地图上表示。

将鼠标移到小点上方,可查看气象台名称。

然后点击查看天气观测和预报。

如需切换地图:点击带黑十字的绿色按钮放大地图;点击带横线的绿色按钮缩小地图;或者点击绿色箭头查看邻近地区的地图。


METAR-TAF: